Time;durP1;ratioP1;P1;durP2;ratioP2;P2;SDS_P1;SDS_P2;PMS_P1;PMS_P2;Temp;Humidity;BMP_temperature;BMP_pressure;BME280_temperature;BME280_humidity;BME280_pressure;Samples;Min_cycle;Max_cycle;Signal;HPM_P1;HPM_P2
2022/09/22 00:01:37;;;;;;;8.77;5.82;;;8.10;1.00;;;7.97;100.00;99275.00;5040796;27;129425;-73
2022/09/22 00:04:10;;;;;;;9.68;6.22;;;8.10;1.00;;;8.00;100.00;99282.50;5041593;27;119810;-73
2022/09/22 00:06:46;;;;;;;9.70;6.28;;;8.10;1.00;;;8.09;100.00;99269.91;5041270;27;119352;-74
2022/09/22 00:09:17;;;;;;;10.70;6.68;;;8.10;1.00;;;8.12;100.00;99277.41;5041027;27;130293;-72
2022/09/22 00:11:48;;;;;;;10.75;6.82;;;8.20;1.00;;;8.20;100.00;99268.59;5040995;27;129483;-73
2022/09/22 00:14:20;;;;;;;12.50;7.78;;;8.20;1.00;;;8.32;100.00;99280.78;5041560;27;119845;-73
2022/09/22 00:16:52;;;;;;;11.80;8.55;;;8.30;1.00;;;8.32;100.00;99276.19;5027395;27;120136;-73
2022/09/22 00:19:24;;;;;;;14.52;8.98;;;8.30;1.00;;;8.40;100.00;99274.69;5040960;27;129923;-73
2022/09/22 00:21:55;;;;;;;13.05;9.65;;;8.30;1.00;;;8.39;100.00;99276.56;5040939;27;129908;-73
2022/09/22 00:24:25;;;;;;;15.43;10.43;;;8.40;1.00;;;8.32;100.00;99281.59;5040064;27;121819;-73
2022/09/22 00:26:56;;;;;;;15.85;11.70;;;8.40;1.00;;;8.26;100.00;99278.19;5041065;27;122136;-73
2022/09/22 00:29:26;;;;;;;19.65;11.65;;;8.40;1.00;;;8.31;100.00;99279.22;5040631;27;129948;-73
2022/09/22 00:31:56;;;;;;;17.58;13.23;;;8.40;1.00;;;8.29;100.00;99276.81;5040609;27;130149;-71
2022/09/22 00:34:27;;;;;;;21.05;14.30;;;8.40;1.00;;;8.28;100.00;99275.19;5041242;27;119706;-72
2022/09/22 00:36:57;;;;;;;18.08;12.95;;;8.40;1.00;;;8.33;100.00;99287.81;5041053;27;120484;-73
2022/09/22 00:39:27;;;;;;;17.98;13.30;;;8.40;1.00;;;8.42;100.00;99281.38;5057068;27;131078;-72
2022/09/22 00:41:55;;;;;;;20.30;13.75;;;8.50;1.00;;;8.52;100.00;99283.09;5061143;27;129767;-74
2022/09/22 00:44:39;;;;;;;19.20;13.80;;;8.50;1.00;;;8.56;100.00;99281.41;5061321;27;119588;-75
2022/09/22 00:47:34;;;;;;;22.55;15.68;;;8.50;1.00;;;8.52;100.00;99280.41;5061161;27;120171;-74
2022/09/22 00:50:14;;;;;;;19.88;14.90;;;8.50;1.00;;;8.46;100.00;99278.91;5059341;27;129754;-75
2022/09/22 00:52:50;;;;;;;20.10;14.23;;;8.50;1.00;;;8.56;100.00;99276.00;5059471;27;129588;-74
2022/09/22 00:55:25;;;;;;;20.55;14.38;;;8.60;1.00;;;8.59;100.00;99280.78;5061137;27;120957;-73
2022/09/22 00:57:56;;;;;;;21.65;14.57;;;8.60;1.00;;;8.62;100.00;99285.59;5061116;27;119698;-74
2022/09/22 01:00:24;;;;;;;20.65;14.82;;;8.60;1.00;;;8.59;100.00;99280.00;5060875;27;129897;-71
2022/09/22 01:02:57;;;;;;;25.73;15.15;;;8.60;1.00;;;8.57;100.00;99277.59;5062168;27;129577;-74
2022/09/22 01:05:29;;;;;;;20.85;14.25;;;8.60;1.00;;;8.46;100.00;99276.19;5029377;27;118481;-74
2022/09/22 01:07:59;;;;;;;19.45;13.32;;;8.60;1.00;;;8.50;100.00;99277.19;5061091;27;119875;-73
2022/09/22 01:10:28;;;;;;;17.42;12.60;;;8.60;1.00;;;8.42;100.00;99270.56;5060156;27;129753;-70
2022/09/22 01:13:10;;;;;;;19.42;12.38;;;8.60;1.00;;;8.40;100.00;99272.00;5060304;27;130528;-75
2022/09/22 01:15:50;;;;;;;16.65;11.15;;;8.60;1.00;;;8.33;100.00;99277.00;5059416;27;122794;-71
2022/09/22 01:18:26;;;;;;;18.65;12.10;;;8.60;1.00;;;8.37;100.00;99272.59;5060705;27;122665;-77
2022/09/22 01:21:19;;;;;;;18.10;11.52;;;8.60;1.00;;;8.27;100.00;99268.19;5041950;27;130065;-74
2022/09/22 01:24:39;;;;;;;18.08;11.65;;;8.60;1.00;;;8.21;100.00;99270.19;5060133;27;129630;-73
2022/09/22 01:27:59;;;;;;;15.98;10.55;;;8.50;1.00;;;8.30;100.00;99274.91;5060269;27;120914;-74
2022/09/22 01:30:36;;;;;;;17.02;10.55;;;8.60;1.00;;;8.21;100.00;99272.91;5060557;27;119731;-73
2022/09/22 01:33:27;;;;;;;16.38;11.45;;;8.60;1.00;;;8.28;100.00;99273.28;5060036;27;130303;-73
2022/09/22 01:36:08;;;;;;;16.70;11.57;;;8.60;1.00;;;8.28;100.00;99265.16;5060926;27;129873;-74
2022/09/22 01:38:46;;;;;;;13.57;10.63;;;8.60;1.00;;;8.24;100.00;99268.78;5060824;27;120058;-71
2022/09/22 01:41:20;;;;;;;14.43;10.65;;;8.60;1.00;;;8.18;100.00;99278.91;5060390;27;119543;-74
2022/09/22 01:43:55;;;;;;;15.27;10.50;;;8.60;1.00;;;8.21;100.00;99275.59;5057445;27;130177;-73
2022/09/22 01:46:36;;;;;;;14.93;10.18;;;8.60;1.00;;;8.18;100.00;99276.22;5060134;27;131066;-72
2022/09/22 01:49:10;;;;;;;15.75;10.00;;;8.60;1.00;;;8.20;100.00;99284.81;5045490;27;119168;-76
2022/09/22 01:51:44;;;;;;;14.55;10.80;;;8.60;1.00;;;8.29;100.00;99271.41;5060480;27;120032;-75
2022/09/22 01:54:16;;;;;;;16.85;11.35;;;8.60;1.00;;;8.26;100.00;99272.78;5060134;27;129715;-74
2022/09/22 01:56:53;;;;;;;17.23;11.13;;;8.60;1.00;;;8.24;100.00;99269.59;5044954;27;128700;-74
2022/09/22 01:59:24;;;;;;;;;;;8.60;1.00;;;8.25;100.00;99265.78;5046063;27;118852;-71
2022/09/22 02:02:01;;;;;;;16.13;11.60;;;8.50;1.00;;;8.19;100.00;99272.38;5061203;27;119134;-74
2022/09/22 02:04:35;;;;;;;18.25;12.18;;;8.60;1.00;;;8.14;100.00;99267.09;5059937;27;130013;-74
2022/09/22 02:07:09;;;;;;;16.67;11.52;;;8.50;1.00;;;8.21;100.00;99264.78;5059636;27;129424;-74
2022/09/22 02:09:42;;;;;;;20.02;12.52;;;8.50;1.00;;;8.23;100.00;99268.00;5058884;27;122603;-72
2022/09/22 02:12:10;;;;;;;16.45;12.30;;;8.50;1.00;;;8.27;100.00;99255.47;5061874;27;122067;-75
2022/09/22 02:14:39;;;;;;;16.52;11.88;;;8.50;1.00;;;8.16;100.00;99262.16;5041297;27;130029;-75
2022/09/22 02:17:12;;;;;;;16.60;11.75;;;8.50;1.00;;;8.15;100.00;99266.00;5058316;27;130048;-69
2022/09/22 02:19:42;;;;;;;16.88;12.60;;;8.50;1.00;;;8.17;100.00;99258.38;5059531;27;120041;-73
2022/09/22 02:22:12;;;;;;;15.90;12.02;;;8.50;1.00;;;8.21;100.00;99256.69;5048063;27;119073;-73
2022/09/22 02:24:43;;;;;;;17.92;12.32;;;8.50;1.00;;;8.30;100.00;99266.78;5063409;27;130426;-75
2022/09/22 02:27:19;;;;;;;18.13;12.52;;;8.50;1.00;;;8.28;100.00;99264.38;5063572;27;129969;-74
2022/09/22 02:29:51;;;;;;;19.88;12.93;;;8.50;1.00;;;8.13;100.00;99268.19;5048545;27;119065;-73
2022/09/22 02:32:22;;;;;;;19.88;13.77;;;8.50;1.00;;;8.03;100.00;99268.41;5048081;27;118320;-72
2022/09/22 02:34:51;;;;;;;19.73;14.05;;;8.40;1.00;;;8.02;100.00;99253.28;5061954;27;129927;-72
2022/09/22 02:37:25;;;;;;;20.45;14.40;;;8.40;1.00;;;8.00;100.00;99269.00;5063393;27;130320;-73
2022/09/22 02:40:07;;;;;;;22.30;15.25;;;8.40;1.00;;;8.05;100.00;99274.28;5063520;27;119601;-74
2022/09/22 02:42:42;;;;;;;23.90;14.70;;;8.40;1.00;;;7.94;100.00;99265.56;5063113;27;119498;-75
2022/09/22 02:45:18;;;;;;;20.13;13.50;;;8.40;1.00;;;7.89;100.00;99271.88;5044443;27;129969;-74
2022/09/22 02:47:52;;;;;;;21.52;14.23;;;8.40;1.00;;;7.90;100.00;99265.38;5047794;27;128561;-72
2022/09/22 02:50:25;;;;;;;21.25;14.40;;;8.30;1.00;;;7.84;100.00;99271.19;5063308;27;120196;-66
2022/09/22 02:53:01;;;;;;;19.25;14.13;;;8.30;1.00;;;7.84;100.00;99261.19;5063713;27;119617;-72
2022/09/22 02:55:30;;;;;;;18.73;13.17;;;8.30;1.00;;;7.85;100.00;99265.50;5063046;27;130568;-73
2022/09/22 02:57:58;;;;;;;19.92;13.57;;;8.30;1.00;;;7.88;100.00;99267.59;5063031;27;129527;-76
2022/09/22 03:00:27;;;;;;;17.70;12.20;;;8.30;1.00;;;7.83;100.00;99264.19;5061751;27;121883;-72
2022/09/22 03:02:58;;;;;;;20.55;13.30;;;8.30;1.00;;;7.81;100.00;99259.06;5047731;27;121513;-69
2022/09/22 03:05:26;;;;;;;20.17;13.43;;;8.30;1.00;;;7.78;100.00;99265.06;5062499;27;129908;-73
2022/09/22 03:07:55;;;;;;;18.10;12.40;;;8.30;1.00;;;7.88;100.00;99266.78;5062324;27;129344;-73
2022/09/22 03:10:23;;;;;;;16.75;11.77;;;8.30;1.00;;;7.85;100.00;99267.38;5048042;27;118439;-71
2022/09/22 03:12:52;;;;;;;18.40;12.35;;;8.30;1.00;;;7.86;100.00;99269.78;5062949;27;119895;-71
2022/09/22 03:15:20;;;;;;;15.18;11.02;;;8.30;1.00;;;7.78;100.00;99267.78;5062238;27;129997;-70
2022/09/22 03:17:49;;;;;;;17.83;12.02;;;8.30;1.00;;;7.81;100.00;99266.38;5045048;27;131409;-72
2022/09/22 03:20:19;;;;;;;14.32;10.73;;;8.30;1.00;;;7.78;100.00;99266.97;5062602;27;119790;-70
2022/09/22 03:22:48;;;;;;;14.70;10.68;;;8.30;1.00;;;7.76;100.00;99269.16;5044337;27;119531;-73
2022/09/22 03:25:16;;;;;;;15.32;10.52;;;8.30;1.00;;;7.80;100.00;99262.84;5042633;27;129866;-71
2022/09/22 03:27:45;;;;;;;14.00;10.10;;;8.30;1.00;;;7.83;100.00;99270.38;5026698;27;129449;-71
2022/09/22 03:30:14;;;;;;;13.85;10.30;;;8.30;1.00;;;7.94;100.00;99275.59;5027090;27;118470;-71
2022/09/22 03:32:42;;;;;;;12.98;9.32;;;8.30;1.00;;;7.84;100.00;99277.38;5041906;27;119933;-71
2022/09/22 03:35:11;;;;;;;13.55;9.35;;;8.30;1.00;;;7.74;100.00;99275.69;5041407;27;130025;-72
2022/09/22 03:37:41;;;;;;;13.77;9.27;;;8.30;1.00;;;7.80;100.00;99276.38;5055697;27;130932;-70
2022/09/22 03:40:10;;;;;;;14.52;10.07;;;8.30;1.00;;;7.76;100.00;99280.78;5062041;27;120708;-71
2022/09/22 03:42:39;;;;;;;15.57;11.27;;;8.20;1.00;;;7.70;100.00;99280.06;5047321;27;118873;-71
2022/09/22 03:45:11;;;;;;;14.43;10.07;;;8.30;1.00;;;7.70;100.00;99271.16;5061730;27;129716;-70
2022/09/22 03:47:39;;;;;;;13.98;9.95;;;8.20;1.00;;;7.78;100.00;99278.56;5061881;27;129325;-70
2022/09/22 03:50:10;;;;;;;17.27;10.80;;;8.30;1.00;;;7.71;100.00;99283.56;5060716;27;122061;-69
2022/09/22 03:52:41;;;;;;;15.05;10.80;;;8.30;1.00;;;7.85;100.00;99284.41;5029876;27;121142;-70
2022/09/22 03:55:11;;;;;;;14.27;10.32;;;8.30;1.00;;;7.84;100.00;99285.50;5061914;27;130008;-68
2022/09/22 03:57:42;;;;;;;15.15;10.50;;;8.30;1.00;;;7.78;100.00;99280.50;5061644;27;129484;-68
2022/09/22 04:00:14;;;;;;;14.80;11.10;;;8.30;1.00;;;7.81;100.00;99283.38;5046937;27;118827;-72
2022/09/22 04:02:43;;;;;;;15.85;10.88;;;8.30;1.00;;;7.82;100.00;99281.47;5060513;27;119718;-69
2022/09/22 04:05:12;;;;;;;15.68;11.15;;;8.30;1.00;;;7.76;100.00;99282.66;5060260;27;130539;-67
2022/09/22 04:07:42;;;;;;;16.27;11.25;;;8.30;1.00;;;7.78;100.00;99283.97;5064269;27;129791;-70
2022/09/22 04:10:10;;;;;;;15.20;10.25;;;8.30;1.00;;;7.81;100.00;99283.38;5061284;27;119827;-69
2022/09/22 04:12:39;;;;;;;13.48;9.38;;;8.30;1.00;;;7.80;100.00;99276.38;5061773;27;119733;-70
2022/09/22 04:15:09;;;;;;;14.38;10.15;;;8.30;1.00;;;7.86;100.00;99280.59;5060579;27;129401;-71
2022/09/22 04:17:37;;;;;;;14.18;10.10;;;8.30;1.00;;;8.00;100.00;99279.81;5061236;27;129727;-71
2022/09/22 04:20:10;;;;;;;15.10;10.30;;;8.30;1.00;;;7.89;100.00;99284.59;5046717;27;118579;-71
2022/09/22 04:22:38;;;;;;;14.45;10.15;;;8.30;1.00;;;7.84;100.00;99282.78;5061657;27;119451;-70
2022/09/22 04:25:10;;;;;;;16.55;10.38;;;8.30;1.00;;;7.91;100.00;99285.88;5060059;27;129924;-71
2022/09/22 04:27:38;;;;;;;14.35;9.55;;;8.30;1.00;;;7.96;100.00;99273.38;5029128;27;129259;-72
2022/09/22 04:30:10;;;;;;;13.07;9.35;;;8.30;1.00;;;8.03;100.00;99284.59;5046063;27;118876;-71
2022/09/22 04:32:38;;;;;;;14.10;10.20;;;8.40;1.00;;;8.01;100.00;99281.38;5046027;27;118016;-73
2022/09/22 04:35:09;;;;;;;12.60;8.57;;;8.30;1.00;;;7.91;100.00;99282.38;5059871;27;130099;-71
2022/09/22 04:37:37;;;;;;;12.55;8.77;;;8.30;1.00;;;7.96;100.00;99284.19;5060673;27;129493;-70
2022/09/22 04:40:11;;;;;;;13.20;8.85;;;8.40;1.00;;;8.02;100.00;99283.00;5041909;27;122008;-69
2022/09/22 04:42:40;;;;;;;13.13;8.73;;;8.40;1.00;;;8.08;100.00;99281.81;5043282;27;120911;-69
2022/09/22 04:45:10;;;;;;;12.52;9.07;;;8.40;99.90;;;8.08;100.00;99279.09;5044307;27;130254;-70
2022/09/22 04:47:39;;;;;;;12.85;8.82;;;8.40;99.90;;;8.12;100.00;99282.00;5028551;27;129132;-70
2022/09/22 04:50:08;;;;;;;14.52;9.32;;;8.40;99.90;;;8.09;100.00;99278.00;5061206;27;119873;-69
2022/09/22 04:52:37;;;;;;;14.50;9.48;;;8.40;99.90;;;8.09;100.00;99283.41;5045774;27;119140;-71
2022/09/22 04:55:10;;;;;;;14.63;9.82;;;8.40;99.90;;;8.09;100.00;99281.50;5045784;27;129329;-69
2022/09/22 04:57:39;;;;;;;12.73;9.18;;;8.40;99.90;;;8.09;100.00;99275.31;5060978;27;129602;-70
2022/09/22 05:00:10;;;;;;;13.73;9.85;;;8.40;99.90;;;8.12;100.00;99287.41;5060757;27;119743;-70
2022/09/22 05:02:38;;;;;;;13.80;9.85;;;8.40;99.90;;;8.15;100.00;99282.22;5062095;27;119431;-70
2022/09/22 05:05:08;;;;;;;14.40;9.65;;;8.50;99.90;;;8.10;100.00;99274.19;5044668;27;129621;-68
2022/09/22 05:07:42;;;;;;;14.90;10.23;;;8.50;99.90;;;8.18;100.00;99280.78;5060560;27;129755;-71
2022/09/22 05:10:12;;;;;;;16.75;11.63;;;8.50;99.90;;;8.26;100.00;99277.41;5059988;27;119604;-71
2022/09/22 05:12:41;;;;;;;16.70;10.68;;;8.50;99.90;;;8.18;100.00;99286.19;5060737;27;119447;-70
2022/09/22 05:15:12;;;;;;;16.40;11.35;;;8.50;99.90;;;8.14;100.00;99286.00;5045470;27;130227;-70
2022/09/22 05:17:46;;;;;;;15.15;10.38;;;8.50;99.90;;;8.14;100.00;99285.22;5060222;27;130055;-67
2022/09/22 05:20:15;;;;;;;18.80;12.27;;;8.50;99.90;;;8.19;100.00;99279.69;5060655;27;119504;-69
2022/09/22 05:22:44;;;;;;;16.85;11.82;;;8.50;1.00;;;8.27;100.00;99279.81;5060947;27;119883;-71
2022/09/22 05:25:17;;;;;;;18.10;12.10;;;8.60;1.00;;;8.20;100.00;99286.72;5041865;27;130143;-69
2022/09/22 05:27:47;;;;;;;18.25;12.10;;;8.50;1.00;;;8.21;100.00;99275.59;5060415;27;130050;-71
2022/09/22 05:30:17;;;;;;;21.65;13.48;;;8.60;1.00;;;8.30;100.00;99280.31;5059498;27;121961;-71
2022/09/22 05:32:47;;;;;;;21.40;13.32;;;8.60;1.00;;;8.44;100.00;99283.81;5060269;27;122085;-71
2022/09/22 05:35:18;;;;;;;20.75;13.07;;;8.60;1.00;;;8.51;100.00;99286.09;5060105;27;130130;-70
2022/09/22 05:37:49;;;;;;;18.05;11.30;;;8.60;1.00;;;8.51;100.00;99295.03;5042040;27;130368;-70
2022/09/22 05:40:22;;;;;;;17.83;12.13;;;8.70;1.00;;;8.61;100.00;99289.41;5045673;27;118465;-72
2022/09/22 05:42:53;;;;;;;20.85;13.45;;;8.70;1.00;;;8.75;100.00;99283.97;5060609;27;120321;-72
2022/09/22 05:45:22;;;;;;;19.73;12.45;;;8.80;1.00;;;8.69;100.00;99293.28;5024879;27;129201;-70
2022/09/22 05:47:50;;;;;;;17.52;11.73;;;8.80;1.00;;;8.70;100.00;99291.41;5040040;27;129441;-72
2022/09/22 05:50:22;;;;;;;19.27;12.55;;;8.80;1.00;;;8.59;100.00;99280.78;5039692;27;120387;-69
2022/09/22 05:52:51;;;;;;;15.88;11.55;;;8.80;99.90;;;8.63;100.00;99294.50;5040121;27;119176;-71
2022/09/22 05:55:22;;;;;;;17.88;12.57;;;8.90;1.00;;;8.71;100.00;99290.28;5038664;27;131370;-73
2022/09/22 05:57:57;;;;;;;16.63;11.57;;;8.90;99.90;;;8.71;100.00;99287.56;5028251;27;129739;-71
2022/09/22 06:00:26;;;;;;;16.40;10.93;;;8.90;99.90;;;8.68;100.00;99290.88;5054131;27;119746;-70
2022/09/22 06:02:55;;;;;;;18.42;11.52;;;8.90;99.90;;;8.77;100.00;99295.28;5066526;27;119378;-72
2022/09/22 06:05:24;;;;;;;15.18;10.43;;;9.00;99.90;;;8.91;100.00;99297.97;5063096;27;129899;-73
2022/09/22 06:08:02;;;;;;;15.77;10.70;;;9.00;99.90;;;8.97;100.00;99296.72;5063197;27;129992;-72
2022/09/22 06:10:33;;;;;;;16.77;10.65;;;9.10;99.90;;;9.05;100.00;99291.69;5063488;27;119724;-73
2022/09/22 06:13:04;;;;;;;14.10;10.13;;;9.10;99.90;;;9.10;100.00;99288.88;5065537;27;119129;-73
2022/09/22 06:15:34;;;;;;;13.18;9.90;;;9.20;99.90;;;9.07;100.00;99294.88;5063416;27;130090;-72
2022/09/22 06:18:05;;;;;;;12.55;8.77;;;9.10;99.90;;;9.15;100.00;99296.88;5059592;27;129716;-72
2022/09/22 06:20:35;;;;;;;14.45;8.80;;;9.20;99.90;;;9.12;100.00;99300.22;5064024;27;121004;-76
2022/09/22 06:23:04;;;;;;;10.48;8.02;;;9.30;99.90;;;9.21;100.00;99295.66;5056048;27;120893;-72
2022/09/22 06:25:34;;;;;;;12.15;8.63;;;9.30;99.90;;;9.34;100.00;99297.50;5059403;27;129559;-70
2022/09/22 06:28:05;;;;;;;10.48;7.82;;;9.40;99.90;;;9.44;100.00;99295.66;5060543;27;129394;-70
2022/09/22 06:30:38;;;;;;;11.55;8.27;;;9.40;99.90;;;9.59;100.00;99300.69;5062030;27;118840;-73
2022/09/22 06:33:08;;;;;;;9.50;6.78;;;9.50;99.90;;;9.48;100.00;99299.34;5042785;27;119209;-73
2022/09/22 06:35:37;;;;;;;8.50;5.75;;;9.40;99.90;;;9.49;100.00;99300.94;5045773;27;128456;-72
2022/09/22 06:38:07;;;;;;;7.65;5.38;;;9.50;99.90;;;9.67;100.00;99302.63;5043317;27;129270;-71
2022/09/22 06:40:37;;;;;;;8.15;4.82;;;9.60;99.90;;;9.70;100.00;99302.03;5062362;27;120254;-76
2022/09/22 06:43:10;;;;;;;7.75;4.90;;;9.60;99.90;;;9.60;100.00;99301.47;5062352;27;119400;-74
2022/09/22 06:45:40;;;;;;;6.00;4.07;;;9.60;99.90;;;9.51;100.00;99299.53;5061265;27;130375;-73
2022/09/22 06:48:10;;;;;;;7.40;4.50;;;9.60;99.90;;;9.60;100.00;99301.47;5041621;27;129268;-72
2022/09/22 06:50:40;;;;;;;6.55;4.03;;;9.60;99.90;;;9.47;100.00;99305.88;5060800;27;120963;-74
2022/09/22 06:53:11;;;;;;;8.18;5.20;;;9.50;99.90;;;9.49;100.00;99300.94;5057207;27;119530;-74
2022/09/22 06:55:42;;;;;;;6.70;3.78;;;9.60;99.90;;;9.55;100.00;99299.69;5059026;27;130259;-73
2022/09/22 06:58:12;;;;;;;6.60;3.60;;;9.50;99.90;;;9.35;100.00;99312.66;5057916;27;129450;-70
2022/09/22 07:00:42;;;;;;;5.65;2.60;;;9.40;99.90;;;9.15;100.00;99310.44;5050107;27;119973;-75
2022/09/22 07:03:19;;;;;;;4.47;2.70;;;9.40;99.90;;;9.13;100.00;99305.31;5042761;27;118544;-70
2022/09/22 07:05:57;;;;;;;4.40;2.70;;;9.30;99.90;;;9.31;100.00;99306.22;5054284;27;130043;-72
2022/09/22 07:08:26;;;;;;;4.10;2.40;;;9.40;99.90;;;9.35;100.00;99307.22;5043784;27;129354;-71
2022/09/22 07:11:00;;;;;;;5.72;2.60;;;9.40;99.90;;;9.42;100.00;99300.59;5028337;27;121057;-71
2022/09/22 07:13:31;;;;;;;4.50;2.58;;;9.50;99.90;;;9.65;100.00;99310.28;5040169;27;121841;-74
2022/09/22 07:16:01;;;;;;;8.95;2.40;;;9.60;99.90;;;9.73;100.00;99305.25;5024967;27;129129;-70
2022/09/22 07:18:30;;;;;;;3.75;2.53;;;9.80;98.50;;;9.91;100.00;99306.94;5052837;27;130875;-70
2022/09/22 07:21:04;;;;;;;4.28;2.47;;;9.90;99.90;;;9.82;100.00;99308.81;5035062;27;118845;-69
2022/09/22 07:23:34;;;;;;;4.90;2.70;;;9.80;99.90;;;9.93;100.00;99310.13;5051671;27;119885;-72
2022/09/22 07:26:05;;;;;;;5.88;3.67;;;9.80;99.90;;;9.96;100.00;99314.94;5054244;27;129693;-72
2022/09/22 07:28:35;;;;;;;5.43;3.70;;;9.90;99.90;;;10.28;100.00;99310.25;5062159;27;129072;-71
2022/09/22 07:31:05;;;;;;;5.55;3.65;;;10.10;99.90;;;10.23;100.00;99313.13;5061975;27;120256;-72
2022/09/22 07:33:35;;;;;;;4.80;3.20;;;10.00;99.90;;;10.36;100.00;99314.97;5062117;27;119351;-73
2022/09/22 07:36:07;;;;;;;5.80;2.72;;;10.10;99.90;;;10.20;100.00;99311.81;5028653;27;129188;-70
2022/09/22 07:38:36;;;;;;;4.47;2.88;;;10.10;99.90;;;10.27;100.00;99314.09;5041526;27;128786;-69
2022/09/22 07:41:12;;;;;;;5.85;3.72;;;10.20;99.90;;;10.30;100.00;99318.06;5052442;27;119715;-70
2022/09/22 07:43:42;;;;;;;6.55;2.60;;;10.20;99.90;;;10.49;100.00;99317.88;5041289;27;119534;-71
2022/09/22 07:46:11;;;;;;;3.85;2.22;;;10.30;99.90;;;10.64;100.00;99317.41;5033373;27;129259;-74
2022/09/22 07:48:44;;;;;;;3.33;2.05;;;10.30;97.60;;;10.47;100.00;99311.94;5058898;27;130353;-68
2022/09/22 07:51:18;;;;;;;4.45;2.60;;;10.30;99.90;;;10.66;100.00;99317.91;5041333;27;119802;-69
2022/09/22 07:53:52;;;;;;;3.80;2.30;;;10.40;99.00;;;10.72;100.00;99326.69;5058235;27;119967;-74
2022/09/22 07:56:22;;;;;;;5.25;2.10;;;10.40;97.10;;;10.53;100.00;99321.53;5042304;27;130207;-73
2022/09/22 07:58:53;;;;;;;4.45;2.58;;;10.30;99.90;;;10.29;100.00;99320.00;5052244;27;130167;-73
2022/09/22 08:01:25;;;;;;;4.70;2.50;;;10.20;99.90;;;10.07;100.00;99320.88;5054376;27;122619;-69
2022/09/22 08:03:53;;;;;;;3.95;2.72;;;10.10;99.90;;;10.14;100.00;99320.41;5051136;27;122214;-75
2022/09/22 08:06:22;;;;;;;7.20;2.78;;;10.10;99.90;;;10.10;100.00;99319.44;5057895;27;130003;-72
2022/09/22 08:08:55;;;;;;;5.85;2.92;;;10.10;99.90;;;10.27;100.00;99319.53;5060721;27;129800;-70
2022/09/22 08:11:29;;;;;;;5.13;2.40;;;10.10;99.90;;;10.56;100.00;99320.91;5054344;27;119915;-72
2022/09/22 08:13:59;;;;;;;4.25;2.65;;;10.30;99.90;;;10.50;100.00;99322.16;5041128;27;119716;-72
2022/09/22 08:16:31;;;;;;;5.47;3.30;;;10.20;99.90;;;10.17;100.00;99333.34;5057002;27;130477;-71
2022/09/22 08:19:09;;;;;;;4.68;2.90;;;10.10;99.90;;;10.05;100.00;99321.19;5058908;27;129547;-71
2022/09/22 08:21:39;;;;;;;6.00;3.88;;;10.00;99.90;;;10.02;100.00;99319.09;5045358;27;118568;-70
2022/09/22 08:24:11;;;;;;;5.20;3.30;;;10.10;99.90;;;10.21;100.00;99321.56;5062282;27;118258;-69
2022/09/22 08:26:43;;;;;;;10.57;3.85;;;10.10;99.90;;;10.47;100.00;99317.38;5058459;27;130199;-74
2022/09/22 08:29:12;;;;;;;5.20;2.80;;;10.30;99.90;;;10.56;100.00;99320.91;5060565;27;130083;-73
2022/09/22 08:31:44;;;;;;;4.88;3.05;;;10.30;99.90;;;10.47;100.00;99317.38;5059782;27;119794;-71
2022/09/22 08:34:15;;;;;;;5.93;3.00;;;10.20;99.90;;;10.34;100.00;99322.59;5045715;27;119576;-70
2022/09/22 08:36:47;;;;;;;7.45;2.60;;;10.20;99.90;;;10.29;100.00;99320.00;5038556;27;129345;-72
2022/09/22 08:39:19;;;;;;;6.13;2.83;;;10.20;99.90;;;10.16;100.00;99323.59;5044108;27;128917;-74
2022/09/22 08:42:08;;;;;;;5.00;2.95;;;10.10;99.90;;;10.16;100.00;99320.91;5043161;27;118416;-76
2022/09/22 08:44:42;;;;;;;4.15;2.55;;;10.20;99.90;;;10.27;100.00;99338.50;5043316;27;118627;-73
2022/09/22 08:51:50;;;;;;;6.43;2.78;;;10.20;99.90;;;10.59;100.00;99331.13;5048734;27;130134;-73
2022/09/22 08:53:14;;;;;;;5.50;2.65;;;10.40;89.70;;;10.83;100.00;99328.00;5041951;27;120929;-71
2022/09/22 08:55:48;;;;;;;4.60;2.55;;;10.60;89.90;;;10.97;100.00;99330.56;5039207;27;121439;-75
2022/09/22 08:58:32;;;;;;;7.20;2.83;;;10.70;92.20;;;11.04;100.00;99328.16;5050887;27;130282;-74
2022/09/22 09:01:14;;;;;;;5.10;3.10;;;10.70;75.20;;;11.07;99.89;99324.81;5060542;27;129532;-75
2022/09/22 09:04:00;;;;;;;5.07;2.40;;;10.70;75.20;;;11.01;98.57;99322.59;5060686;27;119498;-75
2022/09/22 09:06:44;;;;;;;4.83;2.70;;;10.70;58.60;;;11.34;98.01;99317.47;5036090;27;119628;-75
2022/09/22 09:09:40;;;;;;;5.88;2.83;;;11.00;53.60;;;12.04;94.18;99320.88;5043253;27;103695;-76
2022/09/22 09:12:39;;;;;;;4.35;2.10;;;11.50;34.50;;;12.27;89.58;99328.00;5052154;27;128720;-74
2022/09/22 09:15:32;;;;;;;3.78;2.22;;;11.60;14.10;;;12.51;86.77;99309.16;5039511;27;120107;-72
2022/09/22 09:18:11;;;;;;;5.15;2.72;;;11.70;1.30;;;12.58;87.05;99311.34;5058483;27;118941;-72
2022/09/22 09:20:44;;;;;;;3.75;2.10;;;11.70;2.60;;;12.35;87.17;99305.38;5042327;27;129474;-76
2022/09/22 09:23:18;;;;;;;3.80;2.00;;;11.50;2.60;;;12.35;87.53;99308.09;5057857;27;130976;-70
2022/09/22 09:25:51;;;;;;;4.50;2.15;;;11.70;1.00;;;12.31;87.70;99312.59;5057991;27;119726;-75
2022/09/22 09:28:22;;;;;;;4.65;2.28;;;11.60;1.00;;;12.19;88.40;99314.09;5054559;27;119927;-75
2022/09/22 09:31:03;;;;;;;4.10;2.20;;;11.50;1.00;;;11.93;88.97;99310.66;5055810;27;130143;-76
2022/09/22 09:33:48;;;;;;;3.75;2.28;;;11.30;3.80;;;11.87;87.21;99308.09;5040133;27;129956;-73
2022/09/22 09:36:22;;;;;;;3.15;2.03;;;11.40;1.00;;;12.16;87.84;99303.84;5041424;27;119268;-73
2022/09/22 09:38:55;;;;;;;3.50;1.90;;;11.60;1.00;;;12.59;85.59;99304.78;5058627;27;119526;-74
2022/09/22 09:41:31;;;;;;;5.15;2.30;;;11.90;1.00;;;12.54;83.80;99303.03;5057041;27;130169;-77
2022/09/22 09:44:01;;;;;;;2.95;1.80;;;11.80;1.00;;;12.35;82.90;99294.50;5023468;27;128550;-72
2022/09/22 09:46:48;;;;;;;3.05;2.05;;;11.80;1.00;;;12.26;83.74;99286.34;5055143;27;122028;-72
2022/09/22 09:49:20;;;;;;;2.60;1.70;;;11.70;1.00;;;12.10;84.38;99294.28;5058535;27;122147;-76
2022/09/22 09:51:54;;;;;;;4.97;2.20;;;11.60;1.00;;;12.04;85.74;99296.41;5053187;27;129738;-78
2022/09/22 09:54:23;;;;;;;4.00;2.10;;;11.60;1.00;;;12.33;85.12;99291.31;5061981;27;129495;-80
2022/09/22 09:57:09;;;;;;;3.08;1.90;;;11.80;1.00;;;12.45;83.19;99287.88;5010867;27;119531;-73
2022/09/22 10:02:31;;;;;;;4.38;1.98;;;12.00;1.00;;;12.66;81.91;99282.47;5039890;27;128889;-74
2022/09/22 10:05:06;;;;;;;4.00;1.70;;;12.00;1.00;;;12.64;81.66;99290.19;5023372;27;129565;-76
2022/09/22 10:07:43;;;;;;;2.95;1.67;;;12.00;1.00;;;13.14;78.63;99283.88;5037495;27;119198;-76
2022/09/22 10:10:34;;;;;;;4.13;1.98;;;12.40;1.00;;;14.06;75.33;99281.97;5016929;27;118779;-71
2022/09/22 10:13:26;;;;;;;4.57;1.58;;;13.10;1.00;;;14.36;72.02;99279.81;5030378;27;129983;-72
2022/09/22 10:16:21;;;;;;;3.50;1.67;;;13.50;1.00;;;14.51;69.91;99285.72;5034131;27;129470;-75
2022/09/22 10:19:02;;;;;;;3.42;1.88;;;13.60;1.00;;;14.03;72.83;99278.00;5040074;27;119673;-74
2022/09/22 10:21:31;;;;;;;5.68;1.63;;;13.10;1.00;;;13.39;75.08;99281.28;5037126;27;119393;-74
2022/09/22 10:24:21;;;;;;;4.47;1.67;;;12.60;1.00;;;12.93;77.43;99278.41;5037355;27;129274;-74
2022/09/22 10:26:56;;;;;;;5.00;2.00;;;12.40;1.00;;;12.63;82.22;99274.97;5029463;27;131193;-72
2022/09/22 10:29:26;;;;;;;3.90;1.80;;;12.20;1.00;;;12.34;83.61;99271.13;5038634;27;119845;-74
2022/09/22 10:32:14;;;;;;;3.42;1.90;;;12.00;1.00;;;12.43;84.81;99271.88;5040482;27;118551;-74
2022/09/22 10:34:47;;;;;;;2.97;1.70;;;12.20;1.00;;;12.69;84.73;99276.38;5033404;27;129832;-75
2022/09/22 10:37:20;;;;;;;3.88;1.70;;;12.30;1.00;;;12.88;82.68;99282.13;5035675;27;129596;-77
2022/09/22 10:39:52;;;;;;;2.65;1.58;;;12.40;1.00;;;12.70;78.79;99286.09;5035461;27;122602;-69
2022/09/22 10:42:33;;;;;;;3.03;1.80;;;12.20;1.00;;;12.97;78.61;99279.34;5041557;27;121586;-74
2022/09/22 10:45:06;;;;;;;2.58;1.50;;;12.40;1.00;;;13.09;77.77;99281.34;5038029;27;130551;-75